Time;durP1;ratioP1;P1;durP2;ratioP2;P2;SDS_P1;SDS_P2;PMS_P1;PMS_P2;Temp;Humidity;BMP_temperature;BMP_pressure;BME280_temperature;BME280_humidity;BME280_pressure;Samples;Min_cycle;Max_cycle;Signal;HPM_P1;HPM_P2
2022/10/27 00:01:36;;;;;;;7.07;2.75;;;;;;;11.68;100.00;102150.69;5055809;28;20039;-78
2022/10/27 00:04:01;;;;;;;6.72;2.80;;;;;;;11.71;100.00;102150.44;5055534;28;20120;-78
2022/10/27 00:06:26;;;;;;;8.38;2.88;;;;;;;11.68;100.00;102148.84;5056043;28;20473;-78
2022/10/27 00:08:52;;;;;;;5.13;2.60;;;;;;;11.70;100.00;102154.91;5055526;28;20029;-78
2022/10/27 00:11:17;;;;;;;9.93;2.83;;;;;;;11.68;100.00;102153.34;5055717;28;20037;-78
2022/10/27 00:13:43;;;;;;;11.82;2.97;;;;;;;11.66;100.00;102153.47;5055482;28;20495;-79
2022/10/27 00:16:14;;;;;;;4.20;2.53;;;;;;;11.62;100.00;102155.50;5055838;28;20510;-79
2022/10/27 00:18:40;;;;;;;4.97;2.85;;;;;;;11.61;100.00;102159.13;5055809;28;20424;-78
2022/10/27 00:21:08;;;;;;;5.88;3.08;;;;;;;11.59;100.00;102166.38;5054977;28;20059;-79
2022/10/27 00:23:34;;;;;;;10.00;3.45;;;;;;;11.62;100.00;102165.31;5055651;28;20036;-78
2022/10/27 00:26:00;;;;;;;7.35;2.78;;;;;;;11.67;100.00;102167.63;5055166;28;20025;-77
2022/10/27 00:28:26;;;;;;;8.65;3.17;;;;;;;11.69;100.00;102169.22;5055580;28;20037;-78
2022/10/27 00:31:12;;;;;;;6.10;2.80;;;;;;;11.72;100.00;102168.13;5037099;28;20355;-78
2022/10/27 00:33:39;;;;;;;6.70;3.03;;;;;;;11.73;100.00;102159.19;5055568;28;20044;-78
2022/10/27 00:36:06;;;;;;;8.85;3.20;;;;;;;11.70;100.00;102162.91;5054988;28;20032;-78
2022/10/27 00:38:32;;;;;;;9.25;3.20;;;;;;;11.67;100.00;102167.63;5037932;28;20055;-78
2022/10/27 00:40:57;;;;;;;7.47;3.05;;;;;;;11.62;100.00;102175.97;5054928;28;20024;-79
2022/10/27 00:43:34;;;;;;;5.63;2.75;;;;;;;11.57;100.00;102184.31;5055308;28;20067;-78
2022/10/27 00:46:22;;;;;;;8.88;3.72;;;;;;;11.59;100.00;102184.19;5054920;28;20033;-79
2022/10/27 00:48:50;;;;;;;8.90;3.58;;;;;;;11.56;100.00;102176.44;5036908;28;20100;-78
2022/10/27 00:51:18;;;;;;;10.02;3.50;;;;;;;11.51;100.00;102183.91;5054919;28;20029;-78
2022/10/27 00:53:45;;;;;;;6.85;3.53;;;;;;;11.47;100.00;102183.28;5054888;28;20025;-78
2022/10/27 00:56:11;;;;;;;15.50;4.30;;;;;;;11.43;100.00;102181.78;5037036;28;20358;-78
2022/10/27 00:58:37;;;;;;;8.63;3.90;;;;;;;11.46;100.00;102181.56;5055235;28;20025;-78
2022/10/27 01:01:03;;;;;;;6.65;3.67;;;;;;;11.53;100.00;102182.00;5053700;28;20036;-78
2022/10/27 01:03:29;;;;;;;7.70;4.00;;;;;;;11.59;100.00;102178.88;5054882;28;20104;-78
2022/10/27 01:05:56;;;;;;;9.85;3.80;;;;;;;11.62;100.00;102181.31;5054556;28;20465;-79
2022/10/27 01:08:22;;;;;;;10.00;3.17;;;;;;;11.66;100.00;102190.78;5054776;28;20067;-79
2022/10/27 01:10:48;;;;;;;8.77;3.90;;;;;;;11.67;100.00;102191.63;5054339;28;20106;-79
2022/10/27 01:13:14;;;;;;;8.60;3.72;;;;;;;11.68;100.00;102185.34;5054765;28;20033;-78
2022/10/27 01:15:50;;;;;;;10.07;3.45;;;;;;;11.65;100.00;102186.41;5054600;28;20037;-78
2022/10/27 01:18:29;;;;;;;11.18;4.22;;;;;;;11.69;100.00;102176.34;5054659;28;20118;-78
2022/10/27 01:21:09;;;;;;;11.07;4.18;;;;;;;11.67;100.00;102173.81;5054131;28;20095;-78
2022/10/27 01:23:41;;;;;;;8.27;3.75;;;;;;;11.68;100.00;102177.34;5054425;28;20033;-78
2022/10/27 01:26:21;;;;;;;13.70;3.80;;;;;;;11.69;100.00;102182.56;5054109;28;20025;-78
2022/10/27 01:29:11;;;;;;;7.32;3.60;;;;;;;11.67;100.00;102186.28;5054430;28;20493;-78
2022/10/27 01:32:10;;;;;;;8.68;3.83;;;;;;;11.64;100.00;102185.56;5054368;28;20029;-77
2022/10/27 01:34:55;;;;;;;10.05;4.13;;;;;;;11.63;100.00;102183.84;5027069;28;20077;-77
2022/10/27 01:38:05;;;;;;;6.07;3.80;;;;;;;11.60;100.00;102186.75;5054752;28;20035;-78
2022/10/27 01:40:40;;;;;;;6.38;3.50;;;;;;;11.56;100.00;102187.09;5016812;28;20163;-78
2022/10/27 01:43:12;;;;;;;13.43;4.18;;;;;;;11.54;100.00;102175.66;5053789;28;20108;-78
2022/10/27 01:45:39;;;;;;;10.60;4.40;;;;;;;11.51;100.00;102184.78;5053884;28;20420;-78
2022/10/27 01:48:06;;;;;;;7.10;3.45;;;;;;;11.49;100.00;102184.00;5053671;28;20102;-78
2022/10/27 01:50:33;;;;;;;15.35;5.05;;;;;;;11.50;100.00;102174.22;5054076;28;20029;-78
2022/10/27 01:52:59;;;;;;;12.77;4.15;;;;;;;11.49;100.00;102170.69;5053511;28;20053;-78
2022/10/27 01:55:53;;;;;;;7.45;3.58;;;;;;;11.47;100.00;102165.47;5053963;28;20056;-78
2022/10/27 01:58:46;;;;;;;13.85;4.50;;;;;;;11.46;100.00;102162.91;4982277;28;20047;-77
2022/10/27 02:01:12;;;;;;;6.90;3.72;;;;;;;11.44;100.00;102159.53;5053437;28;20035;-77
2022/10/27 02:03:49;;;;;;;8.10;4.05;;;;;;;11.42;100.00;102161.44;5053672;28;20033;-78
2022/10/27 02:06:39;;;;;;;12.18;4.30;;;;;;;11.39;100.00;102162.53;5053240;28;20031;-77
2022/10/27 02:09:28;;;;;;;12.77;4.70;;;;;;;11.40;100.00;102153.56;5053341;28;20070;-78
2022/10/27 02:11:56;;;;;;;13.00;4.60;;;;;;;11.46;100.00;102158.47;5053255;28;20043;-78
2022/10/27 02:14:21;;;;;;;10.85;4.40;;;;;;;11.47;100.00;102162.81;5052328;28;20409;-77
2022/10/27 02:16:53;;;;;;;11.13;4.55;;;;;;;11.44;100.00;102157.69;5053500;28;20035;-77
2022/10/27 02:19:27;;;;;;;7.75;4.10;;;;;;;11.42;100.00;102151.66;5053702;28;20392;-77
2022/10/27 02:21:55;;;;;;;8.02;4.18;;;;;;;11.41;100.00;102152.59;5053436;28;20043;-77
2022/10/27 02:24:21;;;;;;;12.50;5.15;;;;;;;11.46;100.00;102154.91;5053075;28;20033;-77
2022/10/27 02:26:57;;;;;;;13.43;5.55;;;;;;;11.46;100.00;102157.59;5052083;28;20389;-78
2022/10/27 02:29:29;;;;;;;11.18;4.68;;;;;;;11.45;100.00;102153.25;5053052;28;20033;-77
2022/10/27 02:31:56;;;;;;;;;;;;;;;11.41;100.00;102154.41;5053797;28;20059;-77
2022/10/27 02:34:24;;;;;;;7.93;4.20;;;;;;;11.42;100.00;102150.78;5035290;28;19909;-77
2022/10/27 02:36:49;;;;;;;11.23;4.35;;;;;;;11.43;100.00;102148.00;5053194;28;20029;-77
2022/10/27 02:39:14;;;;;;;10.13;4.65;;;;;;;11.50;100.00;102142.25;5052655;28;20598;-77
2022/10/27 02:41:40;;;;;;;11.43;4.68;;;;;;;11.50;100.00;102143.06;5053251;28;20445;-77
2022/10/27 02:44:05;;;;;;;11.75;5.10;;;;;;;11.53;100.00;102144.69;5052146;28;20540;-76
2022/10/27 02:46:30;;;;;;;10.48;4.78;;;;;;;11.55;100.00;102137.41;5052811;28;20029;-77
2022/10/27 02:48:56;;;;;;;8.38;4.15;;;;;;;11.52;100.00;102145.63;5052795;28;20029;-77
2022/10/27 02:51:21;;;;;;;10.63;4.53;;;;;;;11.49;100.00;102146.69;5034601;28;20067;-77
2022/10/27 02:53:46;;;;;;;7.75;4.63;;;;;;;11.45;100.00;102142.59;5053211;28;20048;-77
2022/10/27 02:56:12;;;;;;;8.50;4.10;;;;;;;11.39;100.00;102143.88;5052305;28;20028;-77
2022/10/27 02:58:37;;;;;;;10.55;4.53;;;;;;;11.38;100.00;102149.31;5052757;28;20366;-77
2022/10/27 03:01:03;;;;;;;11.38;4.80;;;;;;;11.35;100.00;102139.72;5051979;28;20465;-78
2022/10/27 03:03:28;;;;;;;10.25;4.47;;;;;;;11.35;100.00;102146.88;5052223;28;20086;-76
2022/10/27 03:05:53;;;;;;;9.55;4.07;;;;;;;11.28;100.00;102143.78;5052315;28;20173;-77
2022/10/27 03:08:19;;;;;;;8.30;4.25;;;;;;;11.22;100.00;102139.75;5052396;28;20239;-77
2022/10/27 03:10:44;;;;;;;7.35;4.00;;;;;;;11.16;100.00;102142.03;5052629;28;20461;-77
2022/10/27 03:13:10;;;;;;;9.10;3.95;;;;;;;11.10;100.00;102135.31;5052115;28;20461;-76
2022/10/27 03:15:35;;;;;;;6.88;3.78;;;;;;;11.07;100.00;102138.22;5052662;28;20044;-76
2022/10/27 03:18:01;;;;;;;8.90;4.10;;;;;;;11.01;100.00;102136.00;5052201;28;20033;-78
2022/10/27 03:20:27;;;;;;;9.13;4.30;;;;;;;10.96;100.00;102133.66;5052596;28;20496;-77
2022/10/27 03:22:52;;;;;;;8.07;4.18;;;;;;;10.89;100.00;102141.22;5052188;28;20057;-77
2022/10/27 03:25:18;;;;;;;11.48;4.10;;;;;;;10.83;100.00;102140.81;5051968;28;20481;-77
2022/10/27 03:27:44;;;;;;;8.93;3.92;;;;;;;10.76;100.00;102140.41;5052251;28;20099;-77
2022/10/27 03:30:15;;;;;;;8.52;4.38;;;;;;;10.73;100.00;102143.28;5052009;28;20037;-77
2022/10/27 03:32:48;;;;;;;6.28;3.47;;;;;;;10.67;100.00;102139.22;5052208;28;20098;-77
2022/10/27 03:35:14;;;;;;;10.52;4.47;;;;;;;10.63;100.00;102142.22;5034806;28;20461;-77
2022/10/27 03:37:39;;;;;;;7.32;4.13;;;;;;;10.56;100.00;102140.00;5052523;28;20025;-77
2022/10/27 03:40:06;;;;;;;6.90;3.60;;;;;;;10.51;100.00;102141.25;5051861;28;20048;-77
2022/10/27 03:42:31;;;;;;;8.57;4.45;;;;;;;10.46;100.00;102140.75;5052368;28;20033;-77
2022/10/27 03:44:56;;;;;;;6.55;4.40;;;;;;;10.41;100.00;102149.88;5051944;28;20059;-77
2022/10/27 03:47:22;;;;;;;6.88;4.22;;;;;;;10.36;100.00;102153.81;5051539;28;20552;-77
2022/10/27 03:49:47;;;;;;;7.68;4.50;;;;;;;10.30;100.00;102154.22;5034418;28;20041;-77
2022/10/27 03:52:12;;;;;;;7.85;4.50;;;;;;;10.25;100.00;102165.16;5051825;28;20079;-77
2022/10/27 03:54:38;;;;;;;10.68;4.93;;;;;;;10.19;100.00;102165.59;5052112;28;20167;-77
2022/10/27 03:57:03;;;;;;;9.20;4.75;;;;;;;10.13;100.00;102156.22;5052130;28;20115;-77
2022/10/27 03:59:28;;;;;;;6.30;4.25;;;;;;;10.11;100.00;102159.97;5051716;28;20432;-77
2022/10/27 04:01:54;;;;;;;9.95;4.30;;;;;;;10.05;100.00;102162.06;5052025;28;20033;-76
2022/10/27 04:04:19;;;;;;;9.40;5.10;;;;;;;9.99;100.00;102156.31;5051585;28;20157;-76
2022/10/27 04:06:44;;;;;;;6.55;4.93;;;;;;;9.95;100.00;102158.31;5052143;28;20060;-76
2022/10/27 04:09:10;;;;;;;6.78;4.22;;;;;;;9.89;100.00;102166.69;5051542;28;20116;-77
2022/10/27 04:11:35;;;;;;;8.38;4.90;;;;;;;9.82;100.00;102160.94;5034242;28;20029;-76
2022/10/27 04:14:00;;;;;;;8.60;4.90;;;;;;;9.78;100.00;102163.88;5051922;28;20029;-77
2022/10/27 04:16:26;;;;;;;8.95;4.80;;;;;;;9.76;100.00;102165.81;5051665;28;20206;-76
2022/10/27 04:18:51;;;;;;;10.70;5.57;;;;;;;9.72;100.00;102162.50;5052066;28;20032;-77
2022/10/27 04:21:16;;;;;;;8.90;5.40;;;;;;;9.70;100.00;102159.09;5051454;28;20037;-77
2022/10/27 04:23:42;;;;;;;9.35;4.97;;;;;;;9.68;100.00;102159.19;5052093;28;20476;-76
2022/10/27 04:26:08;;;;;;;11.35;5.80;;;;;;;9.68;100.00;102163.66;5051779;28;20056;-78
2022/10/27 04:28:33;;;;;;;13.43;6.28;;;;;;;9.71;100.00;102160.78;5051854;28;20106;-76
2022/10/27 04:30:59;;;;;;;12.43;5.63;;;;;;;9.73;100.00;102163.34;5051729;28;20037;-76
2022/10/27 04:33:24;;;;;;;9.85;5.40;;;;;;;9.76;100.00;102158.66;5051648;28;20469;-77
2022/10/27 04:35:49;;;;;;;11.00;5.68;;;;;;;9.80;100.00;102162.00;5053552;28;20025;-76
2022/10/27 04:38:15;;;;;;;12.88;5.70;;;;;;;9.84;100.00;102164.34;5055522;28;20112;-77
2022/10/27 04:40:40;;;;;;;11.00;6.35;;;;;;;9.89;100.00;102159.56;5055390;28;20061;-77
2022/10/27 04:43:06;;;;;;;9.93;5.50;;;;;;;9.96;100.00;102156.53;5055357;28;20065;-77
2022/10/27 04:45:32;;;;;;;10.50;5.90;;;;;;;10.02;100.00;102153.44;5037165;28;20087;-77
2022/10/27 04:47:58;;;;;;;12.38;5.50;;;;;;;10.09;100.00;102153.88;5055214;28;20045;-77
2022/10/27 04:50:23;;;;;;;10.90;5.85;;;;;;;10.15;100.00;102156.97;5037030;28;20086;-77
2022/10/27 04:52:57;;;;;;;9.70;5.20;;;;;;;10.17;100.00;102149.75;5055136;28;20044;-77
2022/10/27 04:55:24;;;;;;;11.50;5.20;;;;;;;10.20;100.00;102148.69;5054511;28;20115;-77
2022/10/27 04:57:49;;;;;;;10.02;5.30;;;;;;;10.19;100.00;102150.47;5054907;28;20366;-77
2022/10/27 05:00:15;;;;;;;11.38;5.65;;;;;;;10.21;100.00;102148.59;5054516;28;20040;-77
2022/10/27 05:02:41;;;;;;;13.18;5.10;;;;;;;10.24;100.00;102142.22;5055359;28;20362;-77
2022/10/27 05:05:06;;;;;;;10.23;5.18;;;;;;;10.27;100.00;102144.66;5054850;28;20466;-77
2022/10/27 05:07:32;;;;;;;10.23;5.57;;;;;;;10.33;100.00;102140.69;5054516;28;20600;-77
2022/10/27 05:09:57;;;;;;;9.73;5.47;;;;;;;10.33;100.00;102141.59;5054824;28;20354;-77
2022/10/27 05:12:23;;;;;;;9.10;4.70;;;;;;;10.33;100.00;102143.34;5054446;28;20538;-77
2022/10/27 05:14:48;;;;;;;11.20;4.60;;;;;;;10.30;100.00;102140.91;5054830;28;20037;-76
2022/10/27 05:17:13;;;;;;;8.98;4.35;;;;;;;10.24;100.00;102145.72;5054538;28;20025;-77
2022/10/27 05:19:39;;;;;;;10.63;4.50;;;;;;;10.19;100.00;102133.66;5054749;28;20039;-77
2022/10/27 05:22:04;;;;;;;7.32;4.30;;;;;;;10.16;100.00;102137.38;5036745;28;20029;-76
2022/10/27 05:24:29;;;;;;;13.13;4.53;;;;;;;10.11;100.00;102131.53;5054359;28;20029;-76
2022/10/27 05:26:55;;;;;;;10.65;4.78;;;;;;;10.10;100.00;102129.84;5054815;28;20025;-76
2022/10/27 05:29:20;;;;;;;7.53;4.40;;;;;;;10.09;100.00;102130.81;5054327;28;20033;-76
2022/10/27 05:31:45;;;;;;;10.10;5.03;;;;;;;10.10;100.00;102129.00;5054514;28;20035;-76
2022/10/27 05:34:11;;;;;;;9.32;4.60;;;;;;;10.12;100.00;102132.38;5036759;28;20037;-76
2022/10/27 05:36:36;;;;;;;13.65;6.13;;;;;;;10.12;100.00;102125.28;5036240;28;20037;-76
2022/10/27 05:39:01;;;;;;;10.13;4.80;;;;;;;10.15;100.00;102127.72;5054397;28;20053;-76
2022/10/27 05:41:27;;;;;;;9.55;4.72;;;;;;;10.16;100.00;102124.09;5036067;28;20067;-76
2022/10/27 05:43:52;;;;;;;7.90;4.47;;;;;;;10.20;100.00;102122.09;5054237;28;20029;-76
2022/10/27 05:46:17;;;;;;;8.98;4.60;;;;;;;10.19;100.00;102120.38;5053498;28;20124;-76
2022/10/27 05:48:43;;;;;;;7.32;3.90;;;;;;;10.15;100.00;102116.22;5054278;28;20040;-76
2022/10/27 05:51:08;;;;;;;12.88;5.00;;;;;;;10.10;100.00;102115.69;5054211;28;20044;-76
2022/10/27 05:53:34;;;;;;;8.43;4.05;;;;;;;10.05;100.00;102110.69;5053724;28;20124;-76
2022/10/27 05:55:59;;;;;;;8.35;3.92;;;;;;;10.00;100.00;102108.34;5054023;28;20461;-77
2022/10/27 05:58:24;;;;;;;8.38;4.43;;;;;;;9.97;100.00;102105.03;5035724;28;20381;-76
2022/10/27 06:00:50;;;;;;;10.38;4.75;;;;;;;9.95;100.00;102097.16;5053934;28;20029;-77
2022/10/27 06:03:21;;;;;;;11.23;5.00;;;;;;;9.91;100.00;102098.31;5053729;28;20397;-77
2022/10/27 06:05:47;;;;;;;8.10;4.45;;;;;;;9.86;100.00;102095.97;5054060;28;20028;-76
2022/10/27 06:08:13;;;;;;;12.20;5.35;;;;;;;9.82;100.00;102105.13;5053908;28;20050;-76
2022/10/27 06:10:40;;;;;;;7.50;4.35;;;;;;;9.78;100.00;102100.09;5053027;28;20033;-76
2022/10/27 06:13:06;;;;;;;8.02;4.18;;;;;;;9.69;100.00;102091.81;5053684;28;20033;-76
2022/10/27 06:15:32;;;;;;;7.70;4.10;;;;;;;9.63;100.00;102088.69;5053563;28;20048;-76
2022/10/27 06:17:58;;;;;;;9.02;4.63;;;;;;;9.58;100.00;102085.50;5053585;28;20393;-76
2022/10/27 06:20:24;;;;;;;10.50;5.10;;;;;;;9.55;100.00;102088.34;5053458;28;20041;-76
2022/10/27 06:22:49;;;;;;;6.72;4.00;;;;;;;9.56;100.00;102090.06;5053534;28;20052;-76
2022/10/27 06:25:15;;;;;;;10.40;4.95;;;;;;;9.57;100.00;102087.31;5035805;28;20036;-76
2022/10/27 06:27:41;;;;;;;11.52;5.30;;;;;;;9.55;100.00;102091.00;5053093;28;20040;-76
2022/10/27 06:30:07;;;;;;;8.98;4.45;;;;;;;9.56;100.00;102084.75;5053378;28;20051;-76
2022/10/27 06:32:39;;;;;;;8.20;4.13;;;;;;;9.52;100.00;102079.66;5053000;28;20120;-76
2022/10/27 06:35:06;;;;;;;7.57;3.83;;;;;;;9.53;100.00;102075.19;5053348;28;20037;-76
2022/10/27 06:37:31;;;;;;;8.32;4.15;;;;;;;9.58;100.00;102075.72;5052494;28;20059;-76
2022/10/27 06:39:56;;;;;;;11.57;4.55;;;;;;;9.67;100.00;102071.59;5053238;28;20033;-76
2022/10/27 06:42:22;;;;;;;8.00;4.20;;;;;;;9.74;100.00;102080.84;5053160;28;20158;-76
2022/10/27 06:44:47;;;;;;;6.55;4.03;;;;;;;9.80;100.00;102077.78;5052722;28;20040;-76
2022/10/27 06:47:13;;;;;;;6.35;3.38;;;;;;;9.81;100.00;102074.19;5035717;28;20033;-76
2022/10/27 06:49:38;;;;;;;7.30;4.00;;;;;;;9.83;100.00;102077.56;5052573;28;20385;-76
2022/10/27 06:52:04;;;;;;;8.88;4.40;;;;;;;9.94;100.00;102070.69;5052777;28;20035;-76
2022/10/27 06:54:29;;;;;;;8.30;4.22;;;;;;;9.98;100.00;102072.19;5052481;28;20477;-76
2022/10/27 06:56:55;;;;;;;13.10;5.03;;;;;;;10.02;100.00;102076.34;5053076;28;20033;-76
2022/10/27 06:59:20;;;;;;;10.57;4.75;;;;;;;10.06;100.00;102077.81;5052496;28;20029;-76
2022/10/27 07:01:46;;;;;;;8.60;4.00;;;;;;;10.08;100.00;102073.25;5052257;28;20511;-76
2022/10/27 07:04:11;;;;;;;8.30;3.63;;;;;;;10.12;100.00;102079.19;5052794;28;20076;-75
2022/10/27 07:06:36;;;;;;;9.02;4.75;;;;;;;10.20;100.00;102080.38;5052384;28;20105;-76
2022/10/27 07:09:02;;;;;;;6.93;3.40;;;;;;;10.19;100.00;102076.00;5052695;28;20037;-76
2022/10/27 07:11:27;;;;;;;5.88;3.60;;;;;;;10.24;100.00;102075.72;5052352;28;20041;-77
2022/10/27 07:13:54;;;;;;;6.97;3.58;;;;;;;10.29;100.00;102075.38;5034652;28;20162;-76
2022/10/27 07:16:20;;;;;;;11.15;4.38;;;;;;;10.29;100.00;102078.03;5052559;28;20423;-76
2022/10/27 07:18:45;;;;;;;9.90;3.97;;;;;;;10.32;100.00;102076.00;5052037;28;20116;-76
2022/10/27 07:21:10;;;;;;;8.00;3.42;;;;;;;10.32;100.00;102077.81;5052671;28;20496;-76
2022/10/27 07:23:35;;;;;;;8.68;3.63;;;;;;;10.32;100.00;102084.00;5052299;28;20480;-76
2022/10/27 07:26:01;;;;;;;10.23;3.55;;;;;;;10.33;100.00;102084.84;5034637;28;20417;-76
2022/10/27 07:28:26;;;;;;;6.53;3.50;;;;;;;10.37;100.00;102091.69;5052559;28;20071;-76
2022/10/27 07:30:54;;;;;;;9.23;4.00;;;;;;;10.44;100.00;102092.13;5034251;28;20469;-76
2022/10/27 07:33:20;;;;;;;11.75;3.45;;;;;;;10.55;100.00;102090.41;5052530;28;20040;-76
2022/10/27 07:35:49;;;;;;;7.60;3.70;;;;;;;10.71;100.00;102087.47;5052106;28;20025;-76
2022/10/27 07:38:15;;;;;;;6.90;3.50;;;;;;;10.87;100.00;102087.25;5052421;28;20033;-76
2022/10/27 07:40:40;;;;;;;5.70;3.75;;;;;;;11.01;100.00;102085.41;5051947;28;20033;-76
2022/10/27 07:43:06;;;;;;;8.98;3.50;;;;;;;11.15;100.00;102082.59;5052293;28;20111;-76
2022/10/27 07:45:32;;;;;;;10.63;4.50;;;;;;;11.29;100.00;102082.41;5052226;28;20119;-77
2022/10/27 07:47:57;;;;;;;10.85;3.53;;;;;;;11.43;100.00;102081.38;5052293;28;20401;-76
2022/10/27 07:50:27;;;;;;;8.23;3.38;;;;;;;11.57;100.00;102083.03;5052287;28;20037;-76
2022/10/27 07:52:53;;;;;;;10.20;3.55;;;;;;;11.73;100.00;102071.19;5051704;28;20061;-76
2022/10/27 07:55:20;;;;;;;8.63;3.00;;;;;;;11.89;100.00;102070.88;5052254;28;20068;-75
2022/10/27 07:57:46;;;;;;;3.88;2.78;;;;;;;11.99;100.00;102072.75;5051873;28;20470;-75
2022/10/27 08:00:14;;;;;;;7.90;2.80;;;;;;;12.09;100.00;102072.03;5052194;28;20037;-76
2022/10/27 08:02:40;;;;;;;6.25;2.97;;;;;;;12.21;100.00;102076.44;5051556;28;20064;-76
2022/10/27 08:05:07;;;;;;;4.70;2.42;;;;;;;12.27;100.00;102072.41;5052121;28;20033;-76
2022/10/27 08:07:33;;;;;;;6.90;2.78;;;;;;;12.35;100.00;102062.84;5052160;28;20040;-76
2022/10/27 08:09:58;;;;;;;5.78;2.13;;;;;;;12.42;100.00;102059.69;5053041;28;20040;-75
2022/10/27 08:12:23;;;;;;;4.72;2.30;;;;;;;12.49;100.00;102072.41;5055924;28;20082;-76
2022/10/27 08:14:49;;;;;;;6.32;2.47;;;;;;;12.52;100.00;102072.19;5055593;28;20116;-76
2022/10/27 08:17:14;;;;;;;6.35;2.30;;;;;;;12.63;100.00;102066.00;5055648;28;20029;-75
2022/10/27 08:19:40;;;;;;;5.70;2.15;;;;;;;12.74;100.00;102058.94;5055790;28;20033;-75
2022/10/27 08:22:05;;;;;;;4.00;2.22;;;;;;;12.82;100.00;102059.16;5055767;28;20064;-76
2022/10/27 08:24:31;;;;;;;6.13;1.90;;;;;;;12.90;100.00;102067.41;5055867;28;20446;-77
2022/10/27 08:26:56;;;;;;;5.43;1.83;;;;;;;13.00;100.00;102065.69;5055691;28;20214;-76
2022/10/27 08:29:21;;;;;;;5.22;1.92;;;;;;;13.10;100.00;102056.94;5037445;28;20036;-76
2022/10/27 08:31:47;;;;;;;4.45;2.03;;;;;;;13.24;100.00;102056.63;5055215;28;20032;-76
2022/10/27 08:34:12;;;;;;;4.18;1.80;;;;;;;13.30;100.00;102047.25;5055807;28;20469;-76
2022/10/27 08:36:38;;;;;;;7.90;2.22;;;;;;;13.37;100.00;102043.97;5055574;28;20043;-75
2022/10/27 08:39:13;;;;;;;5.40;1.73;;;;;;;13.48;100.00;102040.41;5054982;28;20064;-76
2022/10/27 08:42:00;;;;;;;4.35;1.63;;;;;;;13.58;100.00;102022.63;5055547;28;20048;-75
2022/10/27 08:44:50;;;;;;;4.63;1.75;;;;;;;13.74;100.00;102013.28;5055538;28;20033;-76
2022/10/27 08:47:21;;;;;;;2.55;1.50;;;;;;;13.90;100.00;102021.69;5055314;28;20064;-75
2022/10/27 08:49:48;;;;;;;;;;;;;;;14.08;100.00;102027.28;5054970;28;20029;-76
2022/10/27 08:52:32;;;;;;;7.85;1.45;;;;;;;14.28;100.00;102014.81;5054868;28;19982;-76
2022/10/27 08:55:08;;;;;;;3.90;1.77;;;;;;;14.41;100.00;102003.03;5054760;28;20104;-77
2022/10/27 08:57:33;;;;;;;8.25;1.60;;;;;;;14.54;100.00;102005.47;5055110;28;20024;-77
2022/10/27 08:59:58;;;;;;;9.15;1.35;;;;;;;14.66;100.00;102006.22;5054676;28;20469;-77
2022/10/27 09:02:49;;;;;;;5.18;1.40;;;;;;;14.92;100.00;102002.03;5054721;28;20025;-77
2022/10/27 09:05:20;;;;;;;5.80;1.38;;;;;;;15.16;100.00;101998.13;5054998;28;20032;-77
2022/10/27 09:08:04;;;;;;;3.13;1.33;;;;;;;15.42;100.00;101986.81;5054325;28;20071;-77
2022/10/27 09:10:42;;;;;;;3.38;1.25;;;;;;;15.70;100.00;101995.78;5054968;28;20039;-77
2022/10/27 09:13:53;;;;;;;11.70;2.13;;;;;;;16.01;100.00;101991.06;5055046;28;20033;-77
2022/10/27 09:16:42;;;;;;;5.22;1.33;;;;;;;16.31;100.00;101988.28;5033982;28;20051;-76
2022/10/27 09:19:15;;;;;;;5.18;1.48;;;;;;;16.66;100.00;101994.72;5054509;28;20025;-76
2022/10/27 09:21:42;;;;;;;6.93;1.48;;;;;;;17.13;100.00;101991.03;5053771;28;20025;-77
2022/10/27 09:24:12;;;;;;;6.85;1.30;;;;;;;17.63;100.00;101990.44;5054354;28;20362;-76
2022/10/27 09:26:39;;;;;;;2.72;1.20;;;;;;;18.43;100.00;101992.03;5054599;28;20025;-77
2022/10/27 09:29:19;;;;;;;1.65;1.10;;;;;;;19.14;99.69;101982.59;5054150;28;20032;-77
2022/10/27 09:32:12;;;;;;;4.28;1.30;;;;;;;19.55;92.53;101974.47;5054632;28;20029;-77
2022/10/27 09:34:44;;;;;;;5.85;1.80;;;;;;;18.68;95.07;101979.47;5054436;28;20037;-76
2022/10/27 09:37:15;;;;;;;5.03;1.65;;;;;;;18.11;99.95;101969.34;5036161;28;20029;-77
2022/10/27 09:39:43;;;;;;;;;;;;;;;18.29;100.00;101962.00;5054782;28;20033;-77
2022/10/27 09:42:08;;;;;;;2.20;1.33;;;;;;;18.13;100.00;101951.19;5053965;28;19912;-78
2022/10/27 09:44:34;;;;;;;4.10;1.40;;;;;;;17.87;100.00;101949.34;5036356;28;20025;-78
2022/10/27 09:46:59;;;;;;;3.63;1.67;;;;;;;17.61;100.00;101949.34;5053407;28;20029;-78
2022/10/27 09:49:35;;;;;;;5.57;1.48;;;;;;;17.42;100.00;101963.84;5054110;28;20032;-76
2022/10/27 09:52:09;;;;;;;10.93;2.08;;;;;;;17.27;100.00;101952.81;5053749;28;20036;-78
2022/10/27 09:54:38;;;;;;;5.28;1.20;;;;;;;17.25;100.00;101947.59;5054143;28;20036;-78
2022/10/27 09:57:10;;;;;;;2.53;1.30;;;;;;;17.23;100.00;101948.75;5053640;28;20389;-79
2022/10/27 09:59:37;;;;;;;6.20;1.70;;;;;;;17.24;100.00;101934.28;5053994;28;20020;-77
2022/10/27 10:02:25;;;;;;;4.85;1.65;;;;;;;17.41;100.00;101937.97;5053389;28;20161;-77
2022/10/27 10:04:51;;;;;;;5.05;1.50;;;;;;;17.35;100.00;101934.06;5053390;28;20453;-77
2022/10/27 10:07:35;;;;;;;4.40;1.27;;;;;;;17.34;100.00;101939.59;5053823;28;20044;-78
2022/10/27 10:10:23;;;;;;;3.97;1.20;;;;;;;17.27;100.00;101933.97;5053407;28;20028;-78
2022/10/27 10:13:13;;;;;;;3.78;1.30;;;;;;;17.29;100.00;101937.38;5053167;28;20101;-77
2022/10/27 10:15:44;;;;;;;5.90;1.50;;;;;;;17.23;100.00;101933.47;5041885;28;20473;-76
2022/10/27 10:18:26;;;;;;;4.15;1.48;;;;;;;17.17;100.00;101934.09;5053305;28;20033;-76
2022/10/27 10:21:01;;;;;;;6.53;1.42;;;;;;;17.16;100.00;101936.94;5035360;28;20440;-79
2022/10/27 10:23:29;;;;;;;6.00;1.83;;;;;;;17.10;100.00;101933.03;5053006;28;20133;-79
2022/10/27 10:25:58;;;;;;;5.95;1.48;;;;;;;16.92;100.00;101927.66;5053057;28;20025;-79
2022/10/27 10:28:34;;;;;;;5.15;1.67;;;;;;;16.96;100.00;101933.56;5053085;28;20107;-78
2022/10/27 10:31:05;;;;;;;5.28;1.20;;;;;;;16.95;100.00;101937.25;5052713;28;20033;-79
2022/10/27 10:33:36;;;;;;;3.70;1.60;;;;;;;16.94;100.00;101936.41;5052430;28;20029;-77
2022/10/27 10:36:28;;;;;;;3.53;1.55;;;;;;;16.89;100.00;101933.34;5052975;28;20029;-78
2022/10/27 10:38:56;;;;;;;8.10;1.70;;;;;;;17.02;100.00;101919.53;5053002;28;20025;-77
2022/10/27 10:41:23;;;;;;;3.58;1.40;;;;;;;17.08;100.00;101932.34;5035341;28;20029;-77
2022/10/27 10:44:06;;;;;;;3.78;1.70;;;;;;;17.27;100.00;101936.66;5053279;28;20036;-77
2022/10/27 10:46:34;;;;;;;4.45;1.80;;;;;;;17.32;100.00;101917.41;5053052;28;20048;-78
2022/10/27 10:49:00;;;;;;;7.43;1.73;;;;;;;17.37;100.00;101915.91;5052601;28;20496;-78
2022/10/27 10:51:31;;;;;;;3.97;1.40;;;;;;;17.48;100.00;101924.72;5053040;28;20029;-78
2022/10/27 10:54:05;;;;;;;9.07;1.63;;;;;;;17.59;100.00;101930.69;5052363;28;20036;-78
2022/10/27 10:56:34;;;;;;;7.32;1.67;;;;;;;17.66;100.00;101927.34;5052841;28;20074;-78
2022/10/27 10:59:08;;;;;;;6.95;1.77;;;;;;;17.65;100.00;101913.06;5052492;28;20036;-78
2022/10/27 11:01:40;;;;;;;2.45;1.25;;;;;;;17.55;100.00;101923.09;5052887;28;20029;-78
2022/10/27 11:04:08;;;;;;;6.47;1.52;;;;;;;17.44;100.00;101921.50;5052251;28;20078;-78
2022/10/27 11:06:34;;;;;;;4.25;1.48;;;;;;;17.19;100.00;101921.31;5052565;28;20381;-79
2022/10/27 11:09:03;;;;;;;3.25;1.40;;;;;;;17.04;100.00;101917.50;5052407;28;20055;-80
2022/10/27 11:11:34;;;;;;;4.35;1.42;;;;;;;16.88;100.00;101916.38;5052501;28;20040;-79
2022/10/27 11:14:09;;;;;;;5.38;1.90;;;;;;;16.83;100.00;101909.75;5052474;28;20021;-78
2022/10/27 11:16:38;;;;;;;6.43;1.70;;;;;;;16.83;100.00;101899.84;5052753;28;20039;-78
2022/10/27 11:19:10;;;;;;;5.35;1.65;;;;;;;16.88;100.00;101900.25;5052301;28;20029;-78
2022/10/27 11:21:43;;;;;;;8.32;1.83;;;;;;;16.97;100.00;101892.25;5052510;28;20021;-78
2022/10/27 11:24:17;;;;;;;6.47;1.80;;;;;;;17.02;100.00;101889.94;5051618;28;20052;-79
2022/10/27 11:26:58;;;;;;;7.18;2.22;;;;;;;17.01;100.00;101905.22;5052645;28;20029;-80